createdAt,value
2017-10-01T00:00:26.196Z,97150.27
2017-10-01T00:02:53.796Z,97156.25
2017-10-01T00:05:21.425Z,97153.67
2017-10-01T00:07:48.971Z,97155.39
2017-10-01T00:10:16.578Z,97159.63
2017-10-01T00:12:44.167Z,97160.50
2017-10-01T00:15:12.217Z,97164.76
2017-10-01T00:17:40.215Z,97160.91
2017-10-01T00:20:08.892Z,97165.19
2017-10-01T00:22:36.433Z,97174.58
2017-10-01T00:25:05.920Z,97174.22
2017-10-01T00:27:33.543Z,97178.91
2017-10-01T00:30:01.105Z,97173.42
2017-10-01T00:32:30.027Z,97182.41
2017-10-01T00:34:57.670Z,97182.00
2017-10-01T00:37:25.286Z,97186.28
2017-10-01T00:39:52.878Z,97187.98
2017-10-01T00:42:20.950Z,97192.25
2017-10-01T00:44:48.943Z,97192.70
2017-10-01T00:47:16.613Z,97196.55
2017-10-01T00:49:44.201Z,97202.51
2017-10-01T00:52:11.798Z,97205.08
2017-10-01T00:54:40.243Z,97205.91
2017-10-01T00:57:08.789Z,97202.09
2017-10-01T00:59:37.097Z,97204.66
2017-10-01T01:02:05.916Z,97210.63
2017-10-01T01:04:33.507Z,97205.09
2017-10-01T01:07:01.080Z,97209.36
2017-10-01T01:09:28.630Z,97205.13
2017-10-01T01:11:56.211Z,97207.68
2017-10-01T01:14:23.776Z,97208.94
2017-10-01T01:16:52.089Z,97209.82
2017-10-01T01:19:19.640Z,97204.70
2017-10-01T01:21:48.676Z,97204.30
2017-10-01T01:24:17.794Z,97203.02
2017-10-01T01:26:46.735Z,97211.09
2017-10-01T01:29:14.334Z,97209.38
2017-10-01T01:31:41.940Z,97214.52
2017-10-01T01:34:09.542Z,97216.63
2017-10-01T01:36:37.120Z,97212.81
2017-10-01T01:39:05.016Z,97215.35
2017-10-01T01:41:32.575Z,97215.77
2017-10-01T01:44:00.175Z,97214.50
2017-10-01T01:46:27.753Z,97220.45
2017-10-01T01:48:55.319Z,97223.02
2017-10-01T01:51:22.897Z,97217.92
2017-10-01T01:53:50.896Z,97220.05
2017-10-01T01:56:18.483Z,97226.43
2017-10-01T01:58:46.616Z,97224.67
2017-10-01T02:01:18.114Z,97232.78
2017-10-01T02:03:45.674Z,97226.83
2017-10-01T02:06:13.488Z,97230.65
2017-10-01T02:08:41.044Z,97231.92
2017-10-01T02:11:08.573Z,97236.58
2017-10-01T02:13:36.495Z,97237.87
2017-10-01T02:16:04.053Z,97243.41
2017-10-01T02:18:31.664Z,97238.30
2017-10-01T02:20:59.218Z,97242.11
2017-10-01T02:23:27.172Z,97249.33
2017-10-01T02:25:54.754Z,97253.19
2017-10-01T02:28:25.067Z,97251.48
2017-10-01T02:30:52.632Z,97268.88
2017-10-01T02:33:20.225Z,97251.45
2017-10-01T02:35:48.216Z,97258.28
2017-10-01T02:38:16.637Z,97259.95
2017-10-01T02:40:44.192Z,97260.37
2017-10-01T02:43:12.713Z,97260.38
2017-10-01T02:45:41.674Z,97268.88
2017-10-01T02:48:09.210Z,97268.01
2017-10-01T02:50:36.777Z,97271.84
2017-10-01T02:53:04.344Z,97270.13
2017-10-01T02:55:34.825Z,97275.22
2017-10-01T02:58:02.363Z,97279.02
2017-10-01T03:00:29.946Z,97287.56
2017-10-01T03:02:57.925Z,97282.44
2017-10-01T03:05:25.787Z,97288.39
2017-10-01T03:07:53.394Z,97289.23
2017-10-01T03:10:20.966Z,97292.18
2017-10-01T03:12:48.532Z,97300.28
2017-10-01T03:15:16.492Z,97300.23
2017-10-01T03:17:44.120Z,97304.48
2017-10-01T03:20:11.690Z,97309.16
2017-10-01T03:22:39.263Z,97305.72
2017-10-01T03:25:06.834Z,97311.25
2017-10-01T03:27:34.420Z,97312.92
2017-10-01T03:30:03.091Z,97313.75
2017-10-01T03:32:31.263Z,97320.13
2017-10-01T03:34:59.274Z,97323.95
2017-10-01T03:37:26.849Z,97325.25
2017-10-01T03:39:54.463Z,97329.52
2017-10-01T03:42:22.020Z,97327.80
2017-10-01T03:44:49.598Z,97330.30
2017-10-01T03:47:17.151Z,97334.14
2017-10-01T03:49:44.718Z,97333.71
2017-10-01T03:52:12.279Z,97337.55
2017-10-01T03:54:40.670Z,97336.67
2017-10-01T03:57:09.281Z,97339.20
2017-10-01T03:59:37.246Z,97343.88
2017-10-01T04:02:05.395Z,97351.95
2017-10-01T04:04:33.306Z,97346.36
2017-10-01T04:07:01.876Z,97353.12
2017-10-01T04:09:30.896Z,97356.11
2017-10-01T04:11:58.481Z,97356.10
2017-10-01T04:14:26.063Z,97360.36
2017-10-01T04:16:53.636Z,97367.98
2017-10-01T04:19:21.901Z,97367.98
2017-10-01T04:21:49.875Z,97375.19
2017-10-01T04:24:18.323Z,97368.83
2017-10-01T04:26:46.976Z,97369.65
2017-10-01T04:29:15.811Z,97371.77
2017-10-01T04:31:43.395Z,97379.02
2017-10-01T04:34:10.974Z,97374.32
2017-10-01T04:36:38.532Z,97372.58
2017-10-01T04:39:07.567Z,97382.32
2017-10-01T04:41:36.143Z,97383.62
2017-10-01T04:44:03.762Z,97381.38
2017-10-01T04:46:31.687Z,97388.18
2017-10-01T04:48:59.277Z,97383.99
2017-10-01T04:51:26.859Z,97387.42
2017-10-01T04:53:54.454Z,97390.80
2017-10-01T04:56:23.180Z,97393.33
2017-10-01T04:58:50.728Z,97389.42
2017-10-01T05:01:19.696Z,97391.97
2017-10-01T05:03:48.693Z,97393.69
2017-10-01T05:06:16.278Z,97395.77
2017-10-01T05:08:44.237Z,97405.55
2017-10-01T05:11:11.829Z,97403.45
2017-10-01T05:13:39.400Z,97406.50
2017-10-01T05:16:06.987Z,97409.37
2017-10-01T05:18:35.034Z,97408.97
2017-10-01T05:21:02.591Z,97411.51
2017-10-01T05:23:31.569Z,97414.02
2017-10-01T05:25:59.147Z,97412.36
2017-10-01T05:28:27.647Z,97414.47
2017-10-01T05:30:55.224Z,97424.26
2017-10-01T05:33:22.780Z,97422.52
2017-10-01T05:35:50.349Z,97422.89
2017-10-01T05:38:18.272Z,97424.64
2017-10-01T05:40:45.840Z,97431.84
2017-10-01T05:43:15.694Z,97436.50
2017-10-01T05:45:43.305Z,97436.08
2017-10-01T05:48:10.867Z,97437.80
2017-10-01T05:50:38.444Z,97436.95
2017-10-01T05:53:05.998Z,97443.75
2017-10-01T05:55:33.610Z,97445.89
2017-10-01T05:58:01.199Z,97448.50
2017-10-01T06:00:29.165Z,97448.52
2017-10-01T06:02:57.090Z,97446.86
2017-10-01T06:05:24.668Z,97453.22
2017-10-01T06:07:52.694Z,97455.75
2017-10-01T06:10:20.521Z,97459.64
2017-10-01T06:12:48.070Z,97460.51
2017-10-01T06:15:15.627Z,97458.81
2017-10-01T06:17:43.210Z,97467.76
2017-10-01T06:20:12.578Z,97471.15
2017-10-01T06:22:40.620Z,97468.59
2017-10-01T06:25:08.179Z,97467.77
2017-10-01T06:27:36.544Z,97471.59
2017-10-01T06:30:04.573Z,97474.59
2017-10-01T06:32:32.157Z,97480.95
2017-10-01T06:35:00.247Z,97480.97
2017-10-01T06:37:27.826Z,97483.93
2017-10-01T06:39:58.291Z,97489.47
2017-10-01T06:42:26.336Z,97490.77
2017-10-01T06:44:53.923Z,97491.61
2017-10-01T06:47:22.215Z,97494.19
2017-10-01T06:49:50.536Z,97496.76
2017-10-01T06:52:18.527Z,97496.33
2017-10-01T06:54:47.028Z,97500.97
2017-10-01T06:57:15.033Z,97499.69
2017-10-01T06:59:42.688Z,97501.47
2017-10-01T07:02:10.297Z,97500.58
2017-10-01T07:04:44.720Z,97506.16
2017-10-01T07:07:12.310Z,97503.20
2017-10-01T07:09:41.282Z,97511.69
2017-10-01T07:12:10.699Z,97510.43
2017-10-01T07:14:38.269Z,97509.56
2017-10-01T07:17:05.928Z,97514.16
2017-10-01T07:19:33.575Z,97510.83
2017-10-01T07:22:01.180Z,97518.89
2017-10-01T07:24:28.757Z,97520.58
2017-10-01T07:26:56.346Z,97523.61
2017-10-01T07:29:23.940Z,97528.28
2017-10-01T07:31:51.566Z,97535.88
2017-10-01T07:34:19.507Z,97534.17
2017-10-01T07:36:47.085Z,97533.73
2017-10-01T07:39:14.649Z,97538.80
2017-10-01T07:41:43.518Z,97537.56
2017-10-01T07:44:11.125Z,97539.21
2017-10-01T07:46:38.721Z,97543.12
2017-10-01T07:49:06.372Z,97545.71
2017-10-01T07:51:33.970Z,97541.04
2017-10-01T07:54:01.598Z,97555.82
2017-10-01T07:56:30.060Z,97551.99
2017-10-01T07:58:57.785Z,97558.34
2017-10-01T08:01:25.723Z,97568.48
2017-10-01T08:03:55.921Z,97567.70
2017-10-01T08:06:23.566Z,97570.66
2017-10-01T08:08:51.600Z,97574.53
2017-10-01T08:11:20.505Z,97568.45
2017-10-01T08:13:48.301Z,97568.05
2017-10-01T08:16:15.896Z,97572.77
2017-10-01T08:18:43.452Z,97572.86
2017-10-01T08:21:11.077Z,97575.48
2017-10-01T08:23:38.636Z,97581.53
2017-10-01T08:26:06.273Z,97574.80
2017-10-01T08:28:34.414Z,97579.59
2017-10-01T08:31:01.988Z,97581.74
2017-10-01T08:33:29.636Z,97582.95
2017-10-01T08:35:57.820Z,97585.11
2017-10-01T08:38:25.425Z,97589.27
2017-10-01T08:40:53.020Z,97590.59
2017-10-01T08:43:23.012Z,97589.41
2017-10-01T08:45:50.633Z,97593.63
2017-10-01T08:48:20.673Z,97589.39
2017-10-01T08:50:48.264Z,97592.35
2017-10-01T08:53:16.204Z,97595.31
2017-10-01T08:55:43.783Z,97591.09
2017-10-01T08:58:11.362Z,97592.45
2017-10-01T09:00:39.566Z,97591.21
2017-10-01T09:03:07.539Z,97588.31
2017-10-01T09:05:35.152Z,97588.30
2017-10-01T09:08:02.758Z,97578.95
2017-10-01T09:10:32.017Z,97581.06
2017-10-01T09:13:01.216Z,97583.18
2017-10-01T09:15:31.854Z,97580.62
2017-10-01T09:17:59.552Z,97576.45
2017-10-01T09:20:29.571Z,97589.30
2017-10-01T09:22:59.284Z,97584.63
2017-10-01T09:25:27.422Z,97591.85
2017-10-01T09:27:55.028Z,97587.16
2017-10-01T09:30:24.484Z,97584.63
2017-10-01T09:32:52.497Z,97579.13
2017-10-01T09:35:21.513Z,97582.89
2017-10-01T09:37:49.541Z,97580.34
2017-10-01T09:40:17.152Z,97578.20
2017-10-01T09:42:47.627Z,97584.61
2017-10-01T09:45:15.226Z,97579.09
2017-10-01T09:47:42.889Z,97575.76
2017-10-01T09:50:10.494Z,97577.92
2017-10-01T09:52:38.094Z,97583.53
2017-10-01T09:55:07.033Z,97576.77
2017-10-01T09:57:34.649Z,97581.92
2017-10-01T10:00:02.391Z,97577.67
2017-10-01T10:02:30.389Z,97579.80
2017-10-01T10:04:58.129Z,97579.78
2017-10-01T10:07:25.700Z,97583.63
2017-10-01T10:09:53.290Z,97579.39
2017-10-01T10:12:20.874Z,97578.52
2017-10-01T10:14:48.914Z,97581.09
2017-10-01T10:17:17.276Z,97583.66
2017-10-01T10:19:46.928Z,97577.75
2017-10-01T10:22:14.944Z,97576.90
2017-10-01T10:24:45.424Z,97581.16
2017-10-01T10:27:14.791Z,97582.86
2017-10-01T10:29:42.801Z,97588.36
2017-10-01T10:32:10.447Z,97589.17
2017-10-01T10:34:38.039Z,97587.87
2017-10-01T10:37:05.626Z,97592.95
2017-10-01T10:39:33.217Z,97608.69
2017-10-01T10:42:00.765Z,97593.76
2017-10-01T10:44:28.351Z,97598.00
2017-10-01T10:46:55.926Z,97591.23
2017-10-01T10:49:24.170Z,97594.68
2017-10-01T10:51:51.745Z,97590.00
2017-10-01T10:54:19.972Z,97590.45
2017-10-01T10:56:47.960Z,97582.00
2017-10-01T10:59:15.814Z,97579.88
2017-10-01T11:01:43.495Z,97585.43
2017-10-01T11:04:11.054Z,97580.30
2017-10-01T11:06:39.062Z,97580.30
2017-10-01T11:09:07.202Z,97575.19
2017-10-01T11:11:34.855Z,97575.59
2017-10-01T11:14:02.415Z,97579.85
2017-10-01T11:16:32.093Z,97571.33
2017-10-01T11:19:00.922Z,97576.44
2017-10-01T11:21:28.533Z,97571.74
2017-10-01T11:23:56.157Z,97575.60
2017-10-01T11:26:24.056Z,97569.20
2017-10-01T11:28:54.451Z,97574.75
2017-10-01T11:31:24.008Z,97572.20
2017-10-01T11:33:54.739Z,97561.13
2017-10-01T11:36:24.117Z,97561.11
2017-10-01T11:38:51.715Z,97560.66
2017-10-01T11:41:20.599Z,97556.81
2017-10-01T11:43:48.944Z,97558.93
2017-10-01T11:46:16.555Z,97556.35
2017-10-01T11:48:44.189Z,97555.47
2017-10-01T11:51:14.412Z,97557.22
2017-10-01T11:53:44.401Z,97555.13
2017-10-01T11:56:17.411Z,97557.25
2017-10-01T11:58:48.495Z,97555.13
2017-10-01T12:01:16.621Z,97556.86
2017-10-01T12:03:45.602Z,97563.69
2017-10-01T12:06:15.373Z,97556.86
2017-10-01T12:08:43.339Z,97555.56
2017-10-01T12:11:11.336Z,97558.52
2017-10-01T12:13:39.022Z,97561.08
2017-10-01T12:16:11.549Z,97562.35
2017-10-01T12:18:39.148Z,97564.92
2017-10-01T12:21:07.600Z,97567.50
2017-10-01T12:23:35.162Z,97558.14
2017-10-01T12:26:03.117Z,97559.42
2017-10-01T12:28:30.728Z,97563.67
2017-10-01T12:30:58.429Z,97562.36
2017-10-01T12:33:27.492Z,97553.84
2017-10-01T12:35:56.679Z,97551.31
2017-10-01T12:38:24.545Z,97550.88
2017-10-01T12:40:52.796Z,97546.19
2017-10-01T12:43:20.400Z,97549.16
2017-10-01T12:45:49.811Z,97549.59
2017-10-01T12:48:17.407Z,97547.06
2017-10-01T12:50:45.000Z,97542.78
2017-10-01T12:53:12.565Z,97541.08
2017-10-01T12:55:40.995Z,97538.94
2017-10-01T12:58:14.103Z,97544.05
2017-10-01T13:00:41.724Z,97541.50
2017-10-01T13:03:09.297Z,97540.21
2017-10-01T13:05:38.373Z,97543.20
2017-10-01T13:08:09.532Z,97545.73
2017-10-01T13:10:37.126Z,97550.45
2017-10-01T13:13:04.723Z,97545.35
2017-10-01T13:15:32.350Z,97544.48
2017-10-01T13:18:05.046Z,97546.64
2017-10-01T13:20:32.707Z,97548.77
2017-10-01T13:23:00.325Z,97550.91
2017-10-01T13:25:32.478Z,97544.50
2017-10-01T13:28:00.800Z,97551.74
2017-10-01T13:30:29.822Z,97550.03
2017-10-01T13:32:57.795Z,97549.20
2017-10-01T13:35:25.389Z,97555.59
2017-10-01T13:37:52.999Z,97550.47
2017-10-01T13:40:22.545Z,97551.73
2017-10-01T13:42:50.135Z,97549.19
2017-10-01T13:45:19.350Z,97551.33
2017-10-01T13:47:50.716Z,97554.72
2017-10-01T13:50:18.963Z,97553.44
2017-10-01T13:52:46.548Z,97551.73
2017-10-01T13:55:14.164Z,97551.72
2017-10-01T13:57:42.773Z,97549.61
2017-10-01T14:00:11.861Z,97550.89
2017-10-01T14:02:39.446Z,97549.63
2017-10-01T14:05:14.833Z,97551.31
2017-10-01T14:07:42.383Z,97548.77
2017-10-01T14:10:18.208Z,97551.76
2017-10-01T14:12:47.259Z,97547.48
2017-10-01T14:15:18.756Z,97545.78
2017-10-01T14:17:49.525Z,97542.80
2017-10-01T14:20:18.005Z,97545.77
2017-10-01T14:22:48.218Z,97540.22
2017-10-01T14:25:15.804Z,97548.31
2017-10-01T14:27:43.373Z,97545.78
2017-10-01T14:30:10.948Z,97543.63
2017-10-01T14:32:40.889Z,97548.34
2017-10-01T14:35:08.476Z,97542.78
2017-10-01T14:37:36.134Z,97545.34
2017-10-01T14:40:03.750Z,97547.89
2017-10-01T14:42:31.535Z,97541.91
2017-10-01T14:44:59.562Z,97547.00
2017-10-01T14:47:29.025Z,97547.44
2017-10-01T14:49:56.629Z,97550.02
2017-10-01T14:52:24.881Z,97545.32
2017-10-01T14:54:52.506Z,97549.15
2017-10-01T14:57:20.220Z,97545.32
2017-10-01T14:59:48.154Z,97544.49
2017-10-01T15:02:17.002Z,97545.34
2017-10-01T15:04:44.573Z,97547.06
2017-10-01T15:07:12.169Z,97540.22
2017-10-01T15:09:40.932Z,97536.38
2017-10-01T15:12:08.507Z,97541.48
2017-10-01T15:14:36.090Z,97538.09
2017-10-01T15:17:03.710Z,97537.66
2017-10-01T15:19:32.113Z,97537.67
2017-10-01T15:22:00.184Z,97537.23
2017-10-01T15:24:27.721Z,97536.81
2017-10-01T15:26:56.292Z,97532.56
2017-10-01T15:29:24.096Z,97536.84
2017-10-01T15:31:51.696Z,97539.80
2017-10-01T15:34:19.307Z,97536.82
2017-10-01T15:36:46.879Z,97531.30
2017-10-01T15:39:14.496Z,97536.83
2017-10-01T15:41:43.662Z,97534.70
2017-10-01T15:44:11.571Z,97533.42
2017-10-01T15:46:39.274Z,97531.70
2017-10-01T15:49:07.431Z,97532.56
2017-10-01T15:51:37.289Z,97530.86
2017-10-01T15:54:04.868Z,97529.59
2017-10-01T15:56:32.488Z,97536.80
2017-10-01T15:59:01.718Z,97538.52
2017-10-01T16:01:29.316Z,97533.36
2017-10-01T16:03:56.918Z,97537.20
2017-10-01T16:06:24.517Z,97541.04
2017-10-01T16:08:52.110Z,97535.95
2017-10-01T16:11:20.155Z,97542.33
2017-10-01T16:13:47.714Z,97543.16
2017-10-01T16:16:15.325Z,97543.59
2017-10-01T16:18:45.155Z,97546.55
2017-10-01T16:21:12.801Z,97544.88
2017-10-01T16:23:41.739Z,97551.25
2017-10-01T16:26:09.713Z,97545.27
2017-10-01T16:28:37.283Z,97539.73
2017-10-01T16:31:07.868Z,97543.56
2017-10-01T16:33:35.504Z,97543.98
2017-10-01T16:36:04.308Z,97541.40
2017-10-01T16:38:33.097Z,97539.28
2017-10-01T16:41:01.150Z,97542.67
2017-10-01T16:43:28.744Z,97537.95
2017-10-01T16:46:00.872Z,97544.33
2017-10-01T16:48:32.077Z,97542.20
2017-10-01T16:51:00.142Z,97546.45
2017-10-01T16:53:28.986Z,97546.02
2017-10-01T16:55:57.158Z,97549.01
2017-10-01T16:58:24.741Z,97554.11
2017-10-01T17:00:52.349Z,97545.59
2017-10-01T17:03:19.939Z,97548.13
2017-10-01T17:05:47.566Z,97542.57
2017-10-01T17:08:15.549Z,97548.09
2017-10-01T17:10:44.783Z,97548.50
2017-10-01T17:13:13.800Z,97542.53
2017-10-01T17:15:41.372Z,97548.48
2017-10-01T17:18:11.893Z,97554.82
2017-10-01T17:20:39.808Z,97560.31
2017-10-01T17:23:07.415Z,97556.46
2017-10-01T17:25:35.022Z,97556.41
2017-10-01T17:28:02.640Z,97560.22
2017-10-01T17:30:30.237Z,97564.02
2017-10-01T17:32:58.665Z,97568.25
2017-10-01T17:35:26.247Z,97570.77
2017-10-01T17:37:53.863Z,97577.54
2017-10-01T17:40:21.479Z,97574.94
2017-10-01T17:42:49.093Z,97574.92
2017-10-01T17:45:17.056Z,97575.77
2017-10-01T17:47:45.013Z,97573.62
2017-10-01T17:50:12.642Z,97575.70
2017-10-01T17:52:43.141Z,97575.61
2017-10-01T17:55:11.204Z,97576.42
2017-10-01T17:57:39.258Z,97580.64
2017-10-01T18:00:06.880Z,97580.98
2017-10-01T18:02:34.460Z,97580.52
2017-10-01T18:05:05.197Z,97582.17
2017-10-01T18:07:37.074Z,97580.47
2017-10-01T18:10:08.273Z,97575.77
2017-10-01T18:12:35.845Z,97579.98
2017-10-01T18:15:04.852Z,97580.83
2017-10-01T18:17:32.477Z,97586.30
2017-10-01T18:20:03.085Z,97588.39
2017-10-01T18:22:33.007Z,97584.98
2017-10-01T18:25:02.133Z,97589.20
2017-10-01T18:27:31.376Z,97596.82
2017-10-01T18:30:00.096Z,97596.38
2017-10-01T18:32:29.399Z,97592.10
2017-10-01T18:34:56.983Z,97594.64
2017-10-01T18:37:25.619Z,97600.52
2017-10-01T18:39:53.703Z,97595.80
2017-10-01T18:42:21.350Z,97599.85
2017-10-01T18:44:49.296Z,97605.70
2017-10-01T18:47:21.511Z,97595.88
2017-10-01T18:49:50.663Z,97611.52
2017-10-01T18:52:18.269Z,97609.33
2017-10-01T18:54:45.926Z,97608.01
2017-10-01T18:57:14.552Z,97605.87
2017-10-01T18:59:42.189Z,97608.82
2017-10-01T19:02:11.099Z,97613.90
2017-10-01T19:04:39.460Z,97616.84
2017-10-01T19:07:09.919Z,97616.82
2017-10-01T19:09:38.577Z,97613.80
2017-10-01T19:12:06.198Z,97624.39
2017-10-01T19:14:34.926Z,97629.44
2017-10-01T19:17:02.538Z,97620.03
2017-10-01T19:19:30.121Z,97616.20
2017-10-01T19:21:57.990Z,97626.81
2017-10-01T19:24:27.651Z,97620.41
2017-10-01T19:26:58.198Z,97622.51
2017-10-01T19:29:27.173Z,97619.48
2017-10-01T19:31:54.794Z,97611.36
2017-10-01T19:34:25.177Z,97601.94
2017-10-01T19:36:55.668Z,97609.83
2017-10-01T19:39:23.295Z,97600.72
2017-10-01T19:41:54.595Z,97608.63
2017-10-01T19:44:32.768Z,97614.19
2017-10-01T19:47:00.564Z,97609.14
2017-10-01T19:49:31.466Z,97611.27
2017-10-01T19:51:59.938Z,97608.22
2017-10-01T19:54:30.410Z,97611.53
2017-10-01T19:56:59.360Z,97611.56
2017-10-01T19:59:26.944Z,97614.47
2017-10-01T20:01:56.591Z,97614.44
2017-10-01T20:04:26.595Z,97611.80
2017-10-01T20:06:55.420Z,97613.44
2017-10-01T20:09:23.416Z,97616.75
2017-10-01T20:11:51.013Z,97618.38
2017-10-01T20:14:20.307Z,97620.47
2017-10-01T20:16:51.252Z,97621.29
2017-10-01T20:19:18.889Z,97620.42
2017-10-01T20:21:46.468Z,97614.45
2017-10-01T20:24:14.094Z,97617.00
2017-10-01T20:26:41.685Z,97619.11
2017-10-01T20:29:15.201Z,97614.45
2017-10-01T20:31:42.772Z,97623.77
2017-10-01T20:34:10.382Z,97616.93
2017-10-01T20:36:39.463Z,97619.45
2017-10-01T20:39:08.472Z,97618.89
2017-10-01T20:41:39.124Z,97623.44
2017-10-01T20:44:06.754Z,97633.91
2017-10-01T20:46:34.939Z,97627.02
2017-10-01T20:49:02.498Z,97627.66
2017-10-01T20:51:30.105Z,97626.70
2017-10-01T20:53:59.177Z,97621.03
2017-10-01T20:56:27.118Z,97624.39
2017-10-01T20:58:58.429Z,97624.42
2017-10-01T21:01:26.050Z,97621.88
2017-10-01T21:03:53.691Z,97620.60
2017-10-01T21:06:21.285Z,97619.75
2017-10-01T21:08:48.894Z,97623.95
2017-10-01T21:11:17.302Z,97615.06
2017-10-01T21:13:46.214Z,97612.53
2017-10-01T21:16:14.263Z,97612.53
2017-10-01T21:18:41.860Z,97611.70
2017-10-01T21:21:09.427Z,97611.27
2017-10-01T21:23:37.416Z,97610.83
2017-10-01T21:26:04.969Z,97605.76
2017-10-01T21:28:33.390Z,97608.27
2017-10-01T21:31:01.103Z,97612.44
2017-10-01T21:33:29.107Z,97604.36
2017-10-01T21:35:56.704Z,97602.64
2017-10-01T21:38:26.141Z,97595.88
2017-10-01T21:40:54.762Z,97595.41
2017-10-01T21:43:22.378Z,97592.81
2017-10-01T21:45:51.363Z,97591.11
2017-10-01T21:48:19.098Z,97589.41
2017-10-01T21:50:47.074Z,97583.06
2017-10-01T21:53:14.997Z,97585.13
2017-10-01T21:55:42.985Z,97586.67
2017-10-01T21:58:10.597Z,97586.03
2017-10-01T22:00:38.164Z,97587.17
2017-10-01T22:03:05.789Z,97589.14
2017-10-01T22:05:33.366Z,97589.32
2017-10-01T22:08:01.318Z,97582.55
2017-10-01T22:10:30.749Z,97587.24
2017-10-01T22:12:58.305Z,97584.36
2017-10-01T22:15:26.359Z,97584.44
2017-10-01T22:17:54.390Z,97586.14
2017-10-01T22:20:22.516Z,97582.28
2017-10-01T22:22:50.101Z,97579.69
2017-10-01T22:25:17.761Z,97582.17
2017-10-01T22:27:45.342Z,97585.54
2017-10-01T22:30:14.395Z,97577.85
2017-10-01T22:32:41.957Z,97576.96
2017-10-01T22:35:10.067Z,97578.23
2017-10-01T22:37:39.147Z,97576.07
2017-10-01T22:40:06.751Z,97571.41
2017-10-01T22:42:34.330Z,97578.15
2017-10-01T22:45:02.957Z,97576.36
2017-10-01T22:47:31.930Z,97573.39
2017-10-01T22:50:00.030Z,97565.81
2017-10-01T22:52:27.996Z,97562.80
2017-10-01T22:54:55.559Z,97561.09
2017-10-01T22:57:24.922Z,97559.42
2017-10-01T22:59:52.524Z,97557.23
2017-10-01T23:02:20.122Z,97553.41
2017-10-01T23:04:47.701Z,97551.62
2017-10-01T23:07:15.655Z,97551.41
2017-10-01T23:09:43.922Z,97550.61
2017-10-01T23:12:11.523Z,97556.05
2017-10-01T23:14:39.857Z,97549.74
2017-10-01T23:17:07.417Z,97555.68
2017-10-01T23:19:35.026Z,97552.28
2017-10-01T23:22:03.989Z,97565.08
2017-10-01T23:24:31.604Z,97559.88
2017-10-01T23:27:00.061Z,97559.89
2017-10-01T23:29:28.082Z,97558.04
2017-10-01T23:31:56.205Z,97557.00
2017-10-01T23:34:23.798Z,97556.54
2017-10-01T23:36:52.963Z,97557.31
2017-10-01T23:39:20.578Z,97558.18
2017-10-01T23:41:48.546Z,97552.31
2017-10-01T23:44:16.112Z,97553.86
2017-10-01T23:46:45.030Z,97543.52
2017-10-01T23:49:12.601Z,97549.91
2017-10-01T23:51:40.952Z,97548.64
2017-10-01T23:54:08.860Z,97549.53
2017-10-01T23:56:36.457Z,97548.80
2017-10-01T23:59:04.064Z,97544.56
